Archiv-/Tagesdaten

--Timestamp---	Temp	Chill	HIndex	Humid	Dewpt	Wind	HiWind	WindDir	Rain	Barom	        Solar	ET	UV
--------------	----	-----	------	-----	-----	----	------	-------	----	-----	        -----	--	--
20080621 00:05	17.7	17.7	17.7	80	14.2	0	0	22	0.00	1019.035	0	0.000	0
20080621 00:10	17.5	17.5	17.5	80	14.0	0	0	22	0.00	1019.035	0	0.000	0
20080621 00:15	17.3	17.3	17.3	81	14.0	0	0	22	0.00	1019.170	0	0.000	0
20080621 00:20	17.1	17.1	17.1	81	13.8	0	0	22	0.00	1019.103	0	0.000	0
20080621 00:25	16.9	16.9	16.9	82	13.8	0	0	22	0.00	1019.103	0	0.000	0
20080621 00:30	16.7	16.7	16.7	83	13.8	0	0	22	0.00	1019.238	0	0.000	0
20080621 00:35	16.4	16.4	16.4	84	13.7	0	0	22	0.00	1019.306	0	0.000	0
20080621 00:40	16.2	16.2	16.2	84	13.5	0	0	22	0.00	1019.475	0	0.000	0
20080621 00:45	15.9	15.9	15.9	86	13.6	0	0	22	0.00	1019.543	0	0.000	0
20080621 00:50	15.8	15.8	15.8	87	13.6	0	0	22	0.00	1019.475	0	0.000	0
20080621 00:55	15.7	15.7	15.7	87	13.6	0	0	22	0.00	1019.374	0	0.000	0
20080621 01:00	15.7	15.7	15.7	87	13.5	0	0	22	0.00	1019.374	0	0.020	0
20080621 01:05	15.6	15.6	15.6	87	13.4	0	0	22	0.00	1019.272	0	0.000	0
20080621 01:10	15.6	15.6	15.6	87	13.4	0	0	22	0.00	1019.340	0	0.000	0
20080621 01:15	15.5	15.5	15.5	87	13.3	0	0	22	0.00	1019.238	0	0.000	0
20080621 01:20	15.4	15.4	15.4	87	13.3	0	0	22	0.00	1019.238	0	0.000	0
20080621 01:25	15.4	15.4	15.4	87	13.2	0	0	22	0.00	1019.238	0	0.000	0
20080621 01:30	15.3	15.3	15.3	86	13.0	0	0	22	0.00	1019.306	0	0.000	0
20080621 01:35	15.3	15.3	15.3	86	12.9	0	0	22	0.00	1019.340	0	0.000	0
20080621 01:40	15.3	15.3	15.3	86	12.9	0	0	22	0.00	1019.340	0	0.000	0
20080621 01:45	15.2	15.2	15.2	87	13.1	0	0	22	0.00	1019.407	0	0.000	0
20080621 01:50	15.2	15.2	15.2	87	13.1	0	0	22	0.00	1019.407	0	0.000	0
20080621 01:55	15.2	15.2	15.2	87	13.0	0	0	22	0.00	1019.407	0	0.000	0
20080621 02:00	15.1	15.1	15.1	87	13.0	0	0	22	0.00	1019.475	0	0.000	0
20080621 02:05	15.1	15.1	15.1	87	12.9	0	0	22	0.00	1019.374	0	0.000	0
20080621 02:10	15.1	15.1	15.1	87	12.9	0	0	22	0.00	1019.306	0	0.000	0
20080621 02:15	15.1	15.1	15.1	87	13.0	0	0	22	0.00	1019.272	0	0.000	0
20080621 02:20	15.1	15.1	15.1	86	12.7	0	0	22	0.00	1019.238	0	0.000	0
20080621 02:25	15.0	15.0	15.0	86	12.7	0	0	22	0.00	1019.238	0	0.000	0
20080621 02:30	15.0	15.0	15.0	87	12.9	0	0	22	0.00	1019.204	0	0.000	0
20080621 02:35	15.0	15.0	15.0	87	12.9	0	0	22	0.00	1019.238	0	0.000	0
20080621 02:40	15.0	15.0	15.0	86	12.7	0	0	22	0.00	1019.204	0	0.000	0
20080621 02:45	15.0	15.0	15.0	86	12.7	0	0	22	0.00	1019.137	0	0.000	0
20080621 02:50	14.9	14.9	14.9	86	12.6	0	0	22	0.00	1019.137	0	0.000	0
20080621 02:55	14.8	14.8	14.8	86	12.5	0	0	22	0.00	1019.103	0	0.000	0
20080621 03:00	14.8	14.8	14.8	86	12.5	0	0	22	0.00	1019.170	0	0.000	0
20080621 03:05	14.7	14.7	14.7	86	12.4	0	0	22	0.00	1018.933	0	0.000	0
20080621 03:10	14.7	14.7	14.7	87	12.5	0	0	22	0.00	1018.933	0	0.000	0
20080621 03:15	14.6	14.6	14.6	87	12.4	0	0	22	0.00	1018.967	0	0.000	0
20080621 03:20	14.5	14.5	14.5	87	12.4	0	0	22	0.00	1019.001	0	0.000	0
20080621 03:25	14.4	14.4	14.4	87	12.3	0	0	22	0.00	1019.001	0	0.000	0
20080621 03:30	14.4	14.4	14.4	88	12.4	0	0	22	0.00	1019.035	0	0.000	0
20080621 03:35	14.3	14.3	14.3	88	12.4	0	0	22	0.00	1019.069	0	0.000	0
20080621 03:40	14.3	14.3	14.3	87	12.1	0	0	22	0.00	1019.137	0	0.000	0
20080621 03:45	14.2	14.2	14.2	88	12.3	0	0	22	0.00	1019.204	0	0.000	0
20080621 03:50	14.1	14.1	14.1	88	12.2	0	0	22	0.00	1019.238	0	0.000	0
20080621 03:55	14.1	14.1	14.1	88	12.1	0	0	22	0.00	1019.306	0	0.000	0
20080621 04:00	13.9	13.9	13.9	88	12.0	0	0	22	0.00	1019.306	0	0.000	0
20080621 04:05	13.8	13.8	13.8	88	11.9	0	0	22	0.00	1019.272	0	0.000	0
20080621 04:10	13.7	13.7	13.7	88	11.8	0	0	22	0.00	1019.170	0	0.000	0
20080621 04:15	13.7	13.7	13.7	88	11.7	0	0	22	0.00	1019.103	0	0.000	0
20080621 04:20	13.6	13.6	13.6	88	11.6	0	0	22	0.00	1019.035	0	0.000	0
20080621 04:25	13.5	13.5	13.5	88	11.5	0	0	22	0.00	1019.103	0	0.000	0
20080621 04:30	13.4	13.4	13.4	89	11.7	0	0	22	0.00	1019.069	0	0.000	0
20080621 04:35	13.4	13.4	13.4	89	11.7	0	0	22	0.00	1019.137	0	0.000	0
20080621 04:40	13.4	13.4	13.4	89	11.7	0	0	22	0.00	1019.103	0	0.000	0
20080621 04:45	13.4	13.4	13.4	89	11.7	0	0	22	0.00	1019.137	0	0.000	0
20080621 04:50	13.5	13.5	13.5	89	11.7	0	2	22	0.00	1019.103	0	0.000	0
20080621 04:55	13.6	13.6	13.6	89	11.8	0	2	22	0.00	1019.137	0	0.000	0
20080621 05:00	13.6	13.6	13.6	89	11.8	0	2	22	0.00	1019.137	0	0.000	0
20080621 05:05	13.5	13.5	13.5	89	11.7	0	0	22	0.00	1019.204	0	0.000	0
20080621 05:10	13.4	13.4	13.4	89	11.7	0	2	22	0.00	1019.137	0	0.000	0
20080621 05:15	13.4	13.4	13.4	89	11.6	0	0	22	0.00	1019.272	0	0.000	0
20080621 05:20	13.3	13.3	13.3	89	11.6	0	2	22	0.00	1019.441	3	0.000	0
20080621 05:25	13.3	13.3	13.3	89	11.5	0	2	22	0.00	1019.306	5	0.000	0
20080621 05:30	13.3	13.3	13.3	89	11.5	0	0	22	0.00	1019.374	7	0.000	0
20080621 05:35	13.2	13.2	13.2	89	11.4	0	0	22	0.00	1019.374	8	0.000	0
20080621 05:40	13.2	13.2	13.2	89	11.4	0	0	22	0.00	1019.475	10	0.000	0
20080621 05:45	13.2	13.2	13.2	90	11.6	0	2	22	0.00	1019.475	13	0.000	0
20080621 05:50	13.2	13.2	13.2	90	11.6	0	2	22	0.00	1019.475	17	0.000	0
20080621 05:55	13.2	13.2	13.2	90	11.6	0	0	22	0.00	1019.577	19	0.000	0
20080621 06:00	13.2	13.2	13.2	90	11.6	0	0	22	0.00	1019.611	24	0.000	0
20080621 06:05	13.3	13.3	13.3	89	11.5	0	0	22	0.00	1019.611	25	0.000	0
20080621 06:10	13.3	13.3	13.3	89	11.6	0	2	45	0.00	1019.678	26	0.000	0
20080621 06:15	13.4	13.4	13.4	89	11.6	0	3	135	0.00	1019.678	28	0.000	0
20080621 06:20	13.4	13.4	13.4	89	11.7	0	3	157	0.00	1019.645	29	0.000	0
20080621 06:25	13.5	13.5	13.5	89	11.7	0	3	157	0.00	1019.746	33	0.000	0
20080621 06:30	13.6	13.6	13.6	88	11.6	0	0	157	0.00	1019.780	37	0.000	0
20080621 06:35	13.7	13.7	13.7	88	11.7	0	2	157	0.00	1019.645	51	0.000	0
20080621 06:40	13.8	13.8	13.8	88	11.9	0	2	157	0.00	1019.746	80	0.000	0
20080621 06:45	14.0	14.0	14.0	88	12.0	0	0	157	0.00	1019.814	161	0.000	0
20080621 06:50	14.3	14.3	14.3	87	12.2	0	0	157	0.00	1019.780	171	0.000	0
20080621 06:55	14.7	14.7	14.7	86	12.3	0	0	157	0.00	1019.814	143	0.000	0
20080621 07:00	15.0	15.0	15.0	84	12.3	0	2	157	0.00	1019.678	133	0.040	0
20080621 07:05	15.2	15.2	15.2	83	12.3	0	2	157	0.00	1019.915	145	0.000	0
20080621 07:10	15.5	15.5	15.5	83	12.6	0	0	157	0.00	1019.915	178	0.000	0
20080621 07:15	15.8	15.8	15.8	84	13.1	0	2	157	0.00	1019.882	195	0.000	1
20080621 07:20	16.0	16.0	16.0	82	12.9	0	5	157	0.00	1019.780	203	0.000	1
20080621 07:25	16.1	16.1	16.1	82	13.0	2	5	157	0.00	1019.814	162	0.000	1
20080621 07:30	16.2	16.2	16.2	83	13.3	0	5	180	0.00	1019.848	159	0.000	1
20080621 07:35	16.4	16.4	16.4	82	13.3	0	2	180	0.00	1019.949	146	0.000	1
20080621 07:40	16.6	16.6	16.6	83	13.7	0	2	180	0.00	1019.949	281	0.000	1
20080621 07:45	16.8	16.8	16.8	81	13.5	0	2	180	0.00	1019.949	275	0.000	1
20080621 07:50	17.1	17.1	17.1	82	14.0	0	2	180	0.00	1019.848	227	0.000	1
20080621 07:55	17.5	17.5	17.5	81	14.2	0	2	180	0.00	1019.915	321	0.000	1
20080621 08:00	17.8	17.8	17.8	79	14.1	0	3	180	0.00	1019.882	334	0.100	1
20080621 08:05	17.9	17.9	17.9	77	13.8	0	2	180	0.00	1020.017	123	0.000	1
20080621 08:10	18.3	18.3	18.3	77	14.2	0	0	180	0.00	1020.017	339	0.000	1
20080621 08:15	18.6	18.6	18.6	76	14.3	0	2	180	0.00	1019.949	330	0.000	1
20080621 08:20	19.1	19.1	19.1	71	13.7	0	2	180	0.00	1019.915	375	0.000	2
20080621 08:25	19.5	19.5	19.5	69	13.7	0	3	180	0.00	1019.848	339	0.000	2
20080621 08:30	19.8	19.8	19.8	68	13.7	2	5	180	0.00	1019.746	381	0.000	2
20080621 08:35	19.9	19.9	19.9	66	13.4	2	5	180	0.00	1019.882	402	0.000	2
20080621 08:40	20.0	20.0	20.0	66	13.4	0	3	180	0.00	1019.882	395	0.000	2
20080621 08:45	20.2	20.2	20.2	66	13.7	0	3	180	0.00	1019.848	414	0.000	2
20080621 08:50	20.4	20.4	20.4	65	13.6	0	3	180	0.00	1019.678	430	0.000	2
20080621 08:55	20.6	20.6	20.6	63	13.3	3	6	157	0.00	1019.746	425	0.000	2
20080621 09:00	20.7	20.7	20.7	62	13.1	0	3	157	0.00	1019.814	442	0.160	2
20080621 09:05	20.8	20.8	20.8	60	12.7	2	5	157	0.00	1019.915	497	0.000	3
20080621 09:10	20.9	20.9	20.9	60	12.8	3	8	135	0.00	1019.848	442	0.000	2
20080621 09:15	20.8	20.8	20.8	60	12.7	3	8	112	0.00	1019.949	428	0.000	3
20080621 09:20	20.9	20.9	20.9	60	12.9	3	8	135	0.00	1019.915	535	0.000	3
20080621 09:25	21.2	21.2	21.2	60	13.1	3	10	112	0.00	1019.915	528	0.000	3
20080621 09:30	21.3	21.3	21.3	58	12.7	2	8	157	0.00	1019.949	550	0.000	3
20080621 09:35	21.6	21.6	21.6	59	13.2	2	6	135	0.00	1019.882	576	0.000	4
20080621 09:40	21.8	21.8	21.8	57	12.9	2	10	112	0.00	1019.814	572	0.000	3
20080621 09:45	21.7	21.7	21.7	58	13.1	0	5	135	0.00	1019.949	480	0.000	3
20080621 09:50	21.8	21.8	21.8	57	12.9	2	6	135	0.00	1019.848	617	0.000	4
20080621 09:55	21.9	21.9	21.9	58	13.3	0	3	135	0.00	1019.949	532	0.000	4
20080621 10:00	22.3	22.3	22.3	57	13.3	0	3	135	0.00	1019.949	628	0.240	4
20080621 10:05	22.4	22.4	22.4	57	13.5	0	3	135	0.00	1019.983	624	0.000	4
20080621 10:10	22.4	22.4	22.4	57	13.5	0	3	135	0.00	1020.051	629	0.000	4
20080621 10:15	22.5	22.5	22.5	57	13.5	2	5	135	0.00	1019.882	651	0.000	5
20080621 10:20	22.5	22.5	22.5	57	13.5	0	3	135	0.00	1019.949	663	0.000	5
20080621 10:25	22.5	22.5	22.5	58	13.8	2	5	157	0.00	1019.915	668	0.000	5
20080621 10:30	22.4	22.4	22.4	57	13.5	2	5	202	0.00	1019.949	668	0.000	5
20080621 10:35	22.5	22.5	22.5	58	13.8	0	5	202	0.00	1019.848	657	0.000	5
20080621 10:40	22.3	22.3	22.3	57	13.4	2	5	202	0.00	1019.983	682	0.000	6
20080621 10:45	22.2	22.2	22.2	59	13.8	2	6	202	0.00	1019.915	701	0.000	6
20080621 10:50	22.4	22.4	22.4	60	14.2	2	6	180	0.00	1019.882	707	0.000	6
20080621 10:55	22.7	22.7	22.7	58	14.0	0	2	180	0.00	1019.746	720	0.000	6
20080621 11:00	22.9	22.9	22.9	57	13.9	3	10	292	0.00	1019.678	731	0.320	6
20080621 11:05	23.1	23.1	23.1	57	14.1	0	3	292	0.00	1019.814	737	0.000	6
20080621 11:10	23.2	23.2	23.2	57	14.2	2	5	315	0.00	1019.712	749	0.000	7
20080621 11:15	23.3	23.3	23.3	57	14.3	2	6	22	0.00	1019.712	755	0.000	7
20080621 11:20	23.3	23.3	23.3	54	13.5	3	10	292	0.00	1019.780	757	0.000	7
20080621 11:25	23.3	23.3	23.3	56	14.0	3	10	270	0.00	1019.746	766	0.000	7
20080621 11:30	23.5	23.5	23.5	55	13.9	0	3	0	0.00	1019.678	776	0.000	7
20080621 11:35	23.8	23.8	23.8	55	14.2	0	3	315	0.00	1019.678	777	0.000	7
20080621 11:40	23.9	23.9	25.3	55	14.3	2	6	0	0.00	1019.678	787	0.000	7
20080621 11:45	23.9	23.9	25.3	56	14.6	2	5	337	0.00	1019.611	792	0.000	8
20080621 11:50	23.9	23.9	25.3	55	14.3	2	5	45	0.00	1019.611	802	0.000	8
20080621 11:55	24.1	24.1	25.3	58	15.3	2	8	270	0.00	1019.577	808	0.000	8
20080621 12:00	24.2	24.2	25.5	55	14.6	2	6	292	0.00	1019.577	812	0.380	8
20080621 12:05	23.9	23.9	25.3	56	14.6	2	8	22	0.00	1019.848	815	0.000	8
20080621 12:10	24.2	24.2	25.4	58	15.4	2	6	315	0.00	1019.882	814	0.000	8
20080621 12:15	24.3	24.3	25.5	57	15.3	3	8	292	0.00	1019.712	818	0.000	8
20080621 12:20	24.4	24.4	25.6	54	14.5	3	10	292	0.00	1019.746	818	0.000	8
20080621 12:25	24.5	24.5	25.6	54	14.6	2	6	270	0.00	1019.746	822	0.000	8
20080621 12:30	24.6	24.6	25.7	54	14.6	2	8	270	0.00	1019.746	818	0.000	8
20080621 12:35	24.6	24.6	25.7	54	14.7	2	6	22	0.00	1019.814	827	0.000	8
20080621 12:40	24.7	24.7	25.7	52	14.1	3	14	292	0.00	1019.746	838	0.000	8
20080621 12:45	24.7	24.7	25.7	51	13.8	3	8	270	0.00	1019.814	841	0.000	8
20080621 12:50	24.8	24.8	25.8	51	13.9	2	5	247	0.00	1019.645	852	0.000	9
20080621 12:55	24.8	24.8	25.8	52	14.3	2	5	22	0.00	1019.577	843	0.000	9
20080621 13:00	24.7	24.7	25.7	52	14.1	3	10	22	0.00	1019.577	843	0.420	9
20080621 13:05	24.8	24.8	25.8	56	15.4	2	8	292	0.00	1019.475	840	0.000	9
20080621 13:10	25.1	25.1	25.9	51	14.2	2	5	0	0.00	1019.577	847	0.000	9
20080621 13:15	25.1	25.1	26.0	54	15.1	3	10	22	0.00	1019.611	849	0.000	9
20080621 13:20	25.2	25.2	26.0	52	14.6	2	8	22	0.00	1019.543	847	0.000	9
20080621 13:25	25.4	25.4	26.2	54	15.4	2	6	22	0.00	1019.475	845	0.000	9
20080621 13:30	25.3	25.3	26.2	53	15.1	3	8	22	0.00	1019.441	837	0.000	8
20080621 13:35	25.4	25.4	26.2	53	15.1	5	10	22	0.00	1019.475	837	0.000	9
20080621 13:40	25.6	25.6	26.3	52	15.0	2	10	292	0.00	1019.441	836	0.000	8
20080621 13:45	25.7	25.7	26.4	52	15.1	3	13	315	0.00	1019.374	839	0.000	9
20080621 13:50	25.4	25.4	26.2	53	15.2	3	8	22	0.00	1019.340	838	0.000	8
20080621 13:55	25.4	25.4	26.2	50	14.2	2	8	0	0.00	1019.374	834	0.000	8
20080621 14:00	25.4	25.4	26.2	53	15.1	3	8	22	0.00	1019.374	828	0.420	8
20080621 14:05	25.6	25.6	26.4	55	15.9	2	6	22	0.00	1019.306	826	0.000	8
20080621 14:10	25.7	25.7	26.3	50	14.5	2	6	22	0.00	1019.306	829	0.000	8
20080621 14:15	25.8	25.8	26.6	54	15.8	3	6	292	0.00	1019.306	821	0.000	8
20080621 14:20	26.1	26.1	26.7	53	15.7	3	13	22	0.00	1019.137	817	0.000	8
20080621 14:25	26.2	26.2	26.7	51	15.2	3	11	22	0.00	1019.137	818	0.000	8
20080621 14:30	26.3	26.3	26.9	52	15.6	2	6	0	0.00	1019.035	814	0.000	8
20080621 14:35	26.6	26.6	27.1	51	15.6	2	6	315	0.00	1019.069	812	0.000	8
20080621 14:40	26.3	26.3	26.8	50	15.0	3	8	0	0.00	1019.103	808	0.000	8
20080621 14:45	25.9	25.9	26.6	52	15.3	3	8	22	0.00	1019.069	799	0.000	8
20080621 14:50	26.2	26.2	26.7	51	15.2	2	8	292	0.00	1019.035	797	0.000	8
20080621 14:55	26.3	26.3	26.8	50	15.0	3	8	292	0.00	1019.035	799	0.000	8
20080621 15:00	26.4	26.4	26.9	49	14.9	2	11	292	0.00	1019.001	792	0.420	7
20080621 15:05	26.6	26.6	27.0	50	15.3	3	16	292	0.00	1019.069	780	0.000	7
20080621 15:10	26.6	26.6	27.0	50	15.3	2	5	22	0.00	1019.035	751	0.000	7
20080621 15:15	26.7	26.7	27.2	51	15.7	3	11	292	0.00	1018.967	760	0.000	7
20080621 15:20	26.8	26.8	27.3	50	15.5	5	14	292	0.00	1018.967	754	0.000	7
20080621 15:25	26.7	26.7	27.1	49	15.1	2	5	22	0.00	1018.967	745	0.000	7
20080621 15:30	26.7	26.7	27.1	49	15.1	3	6	0	0.00	1018.933	741	0.000	6
20080621 15:35	26.3	26.3	26.8	50	15.1	5	10	22	0.00	1018.933	734	0.000	6
20080621 15:40	26.2	26.2	26.7	49	14.6	3	6	22	0.00	1018.866	726	0.000	6
20080621 15:45	26.6	26.6	27.2	53	16.2	2	8	22	0.00	1018.832	719	0.000	6
20080621 15:50	27.1	27.1	27.4	49	15.4	2	5	45	0.00	1018.696	717	0.000	6
20080621 15:55	27.0	27.0	27.4	49	15.4	2	6	22	0.00	1018.696	707	0.000	6
20080621 16:00	27.1	27.1	27.3	48	15.1	2	11	292	0.00	1018.662	693	0.380	6
20080621 16:05	27.1	27.1	27.3	48	15.1	2	5	45	0.00	1018.798	679	0.000	5
20080621 16:10	26.9	26.9	27.2	48	14.9	3	10	22	0.00	1018.798	672	0.000	5
20080621 16:15	26.9	26.9	27.2	48	14.9	3	11	292	0.00	1018.764	660	0.000	5
20080621 16:20	27.2	27.2	27.6	50	15.8	2	8	292	0.00	1018.662	642	0.000	5
20080621 16:25	27.2	27.2	27.5	48	15.2	3	11	270	0.00	1018.662	642	0.000	5
20080621 16:30	27.3	27.3	27.5	47	15.0	2	6	22	0.00	1018.662	634	0.000	4
20080621 16:35	27.3	27.3	27.7	49	15.7	2	5	22	0.00	1018.730	626	0.000	4
20080621 16:40	27.3	27.3	27.4	45	14.3	3	8	292	0.00	1018.662	616	0.000	4
20080621 16:45	27.3	27.3	27.5	47	15.0	2	5	0	0.00	1018.662	602	0.000	4
20080621 16:50	26.9	26.9	27.2	48	15.0	3	10	22	0.00	1018.696	588	0.000	4
20080621 16:55	26.9	26.9	27.1	46	14.3	3	10	22	0.00	1018.629	575	0.000	4
20080621 17:00	27.2	27.2	27.4	46	14.6	2	6	22	0.00	1018.527	567	0.340	4
20080621 17:05	27.2	27.2	27.4	47	14.9	3	6	45	0.00	1018.459	552	0.000	3
20080621 17:10	27.4	27.4	27.7	48	15.4	0	3	337	0.00	1018.459	540	0.000	3
20080621 17:15	27.8	27.8	27.9	46	15.1	2	6	292	0.00	1018.392	530	0.000	3
20080621 17:20	27.8	27.8	27.8	45	14.7	2	8	22	0.00	1018.358	521	0.000	3
20080621 17:25	27.5	27.5	27.7	47	15.2	2	8	0	0.00	1018.324	510	0.000	3
20080621 17:30	27.6	27.6	27.6	44	14.2	2	8	0	0.00	1018.324	500	0.000	3
20080621 17:35	27.7	27.7	27.9	47	15.3	2	5	0	0.00	1018.290	484	0.000	2
20080621 17:40	27.7	27.7	27.7	44	14.3	2	6	0	0.00	1018.290	471	0.000	2
20080621 17:45	27.4	27.4	27.4	44	14.0	3	8	0	0.00	1018.222	458	0.000	2
20080621 17:50	27.1	27.1	27.2	45	14.1	3	8	22	0.00	1018.358	445	0.000	2
20080621 17:55	26.9	26.9	27.0	45	13.9	3	6	22	0.00	1018.324	435	0.000	2
20080621 18:00	26.7	26.7	26.9	45	13.7	3	8	22	0.00	1018.324	422	0.280	2
20080621 18:05	26.8	26.8	27.2	48	14.9	2	5	22	0.00	1018.188	410	0.000	2
20080621 18:10	27.1	27.1	27.3	48	15.1	0	3	22	0.00	1018.087	398	0.000	2
20080621 18:15	27.2	27.2	27.3	45	14.2	3	6	22	0.00	1018.087	386	0.000	2
20080621 18:20	27.2	27.2	27.4	48	15.2	2	6	22	0.00	1018.053	374	0.000	1
20080621 18:25	27.3	27.3	27.3	44	13.9	3	8	0	0.00	1018.019	360	0.000	1
20080621 18:30	27.0	27.0	27.1	44	13.7	3	8	45	0.00	1018.019	349	0.000	1
20080621 18:35	26.7	26.7	26.9	45	13.8	3	6	45	0.00	1018.121	339	0.000	1
20080621 18:40	26.6	26.6	26.9	46	14.0	3	6	22	0.00	1018.053	325	0.000	1
20080621 18:45	26.6	26.6	26.8	46	14.0	3	8	67	0.00	1018.087	312	0.000	1
20080621 18:50	26.4	26.4	26.7	45	13.5	5	6	22	0.00	1018.121	303	0.000	1
20080621 18:55	26.4	26.4	26.7	45	13.5	3	6	45	0.00	1018.087	291	0.000	1
20080621 19:00	26.3	26.3	26.6	45	13.4	2	5	45	0.00	1018.053	279	0.200	1
20080621 19:05	26.2	26.2	26.6	46	13.7	2	5	45	0.00	1017.816	265	0.000	1
20080621 19:10	26.2	26.2	26.7	48	14.3	2	6	45	0.00	1017.816	250	0.000	1
20080621 19:15	26.2	26.2	26.5	46	13.6	3	8	22	0.00	1017.748	239	0.000	1
20080621 19:20	26.1	26.1	26.4	45	13.2	2	5	22	0.00	1017.782	221	0.000	1
20080621 19:25	25.9	25.9	26.3	45	13.1	2	5	22	0.00	1017.782	120	0.000	0
20080621 19:30	25.9	25.9	26.5	49	14.4	3	6	22	0.00	1017.850	47	0.000	0
20080621 19:35	25.7	25.7	26.3	50	14.5	3	6	67	0.00	1017.850	47	0.000	0
20080621 19:40	25.5	25.5	26.2	51	14.6	3	6	45	0.00	1017.850	46	0.000	0
20080621 19:45	25.3	25.3	26.2	53	15.1	3	6	45	0.00	1017.850	44	0.000	0
20080621 19:50	25.2	25.2	26.1	52	14.7	3	6	67	0.00	1017.951	42	0.000	0
20080621 19:55	25.1	25.1	26.0	53	14.8	2	6	45	0.00	1017.985	40	0.000	0
20080621 20:00	24.9	24.9	25.9	54	15.0	2	3	67	0.00	1018.019	39	0.080	0
20080621 20:05	24.8	24.8	25.8	55	15.1	0	3	67	0.00	1017.714	35	0.000	0
20080621 20:10	24.6	24.6	25.7	56	15.2	0	3	90	0.00	1017.816	35	0.000	0
20080621 20:15	24.4	24.4	25.6	57	15.3	2	5	90	0.00	1017.816	33	0.000	0
20080621 20:20	24.3	24.3	25.5	57	15.2	2	3	112	0.00	1017.782	31	0.000	0
20080621 20:25	24.2	24.2	25.4	57	15.1	0	3	112	0.00	1017.748	28	0.000	0
20080621 20:30	24.0	24.0	25.3	57	14.9	0	2	112	0.00	1017.748	26	0.000	0
20080621 20:35	23.9	23.9	25.2	58	15.1	0	2	112	0.00	1017.782	23	0.000	0
20080621 20:40	23.8	23.8	23.8	58	15.0	0	2	112	0.00	1017.816	20	0.000	0
20080621 20:45	23.6	23.6	23.6	59	15.1	0	3	112	0.00	1017.816	17	0.000	0
20080621 20:50	23.4	23.4	23.4	59	15.0	0	2	112	0.00	1017.917	14	0.000	0
20080621 20:55	23.3	23.3	23.3	60	15.1	0	2	112	0.00	1017.917	12	0.000	0
20080621 21:00	23.1	23.1	23.1	60	14.9	0	0	112	0.00	1017.951	10	0.020	0
20080621 21:05	22.9	22.9	22.9	61	15.0	0	0	112	0.00	1017.884	8	0.000	0
20080621 21:10	22.7	22.7	22.7	61	14.8	0	0	112	0.00	1017.985	6	0.000	0
20080621 21:15	22.6	22.6	22.6	61	14.7	0	2	112	0.00	1017.951	3	0.000	0
20080621 21:20	22.5	22.5	22.5	62	14.8	0	0	112	0.00	1017.985	0	0.000	0
20080621 21:25	22.3	22.3	22.3	62	14.7	0	0	112	0.00	1018.019	0	0.000	0
20080621 21:30	22.2	22.2	22.2	62	14.6	0	0	112	0.00	1018.087	0	0.000	0
20080621 21:35	22.1	22.1	22.1	62	14.4	0	2	112	0.00	1018.087	0	0.000	0
20080621 21:40	21.9	21.9	21.9	63	14.5	0	0	112	0.00	1018.087	0	0.000	0
20080621 21:45	21.8	21.8	21.8	65	14.9	0	0	112	0.00	1018.290	0	0.000	0
20080621 21:50	21.6	21.6	21.6	64	14.5	0	0	112	0.00	1018.256	0	0.000	0
20080621 21:55	21.4	21.4	21.4	64	14.3	0	0	112	0.00	1018.222	0	0.000	0
20080621 22:00	21.3	21.3	21.3	64	14.2	0	2	112	0.00	1018.324	0	0.000	0
20080621 22:05	21.2	21.2	21.2	65	14.3	0	2	112	0.00	1018.290	0	0.000	0
20080621 22:10	21.0	21.0	21.0	67	14.6	0	2	112	0.00	1018.290	0	0.000	0
20080621 22:15	20.8	20.8	20.8	67	14.5	0	2	112	0.00	1018.256	0	0.000	0
20080621 22:20	20.7	20.7	20.7	67	14.3	0	2	112	0.00	1018.188	0	0.000	0
20080621 22:25	20.5	20.5	20.5	67	14.2	0	0	112	0.00	1018.256	0	0.000	0
20080621 22:30	20.3	20.3	20.3	67	14.0	0	2	112	0.00	1018.256	0	0.000	0
20080621 22:35	20.3	20.3	20.3	68	14.2	0	0	112	0.00	1018.256	0	0.000	0
20080621 22:40	20.1	20.1	20.1	70	14.5	0	0	112	0.00	1018.392	0	0.000	0
20080621 22:45	20.0	20.0	20.0	69	14.1	0	0	112	0.00	1018.290	0	0.000	0
20080621 22:50	19.9	19.9	19.9	70	14.3	0	2	112	0.00	1018.425	0	0.000	0
20080621 22:55	19.9	19.9	19.9	71	14.5	0	2	112	0.00	1018.425	0	0.000	0
20080621 23:00	19.8	19.8	19.8	70	14.2	0	2	112	0.00	1018.425	0	0.020	0
20080621 23:05	19.8	19.8	19.8	71	14.4	0	2	112	0.00	1018.256	0	0.000	0
20080621 23:10	19.8	19.8	19.8	71	14.4	0	0	112	0.00	1018.324	0	0.000	0
20080621 23:15	19.7	19.7	19.7	71	14.3	0	0	112	0.00	1018.392	0	0.000	0
20080621 23:20	19.5	19.5	19.5	71	14.1	0	0	112	0.00	1018.358	0	0.000	0
20080621 23:25	19.3	19.3	19.3	73	14.3	0	0	112	0.00	1018.392	0	0.000	0
20080621 23:30	19.0	19.0	19.0	74	14.3	0	0	112	0.00	1018.459	0	0.000	0
20080621 23:35	18.7	18.7	18.7	75	14.2	0	0	112	0.00	1018.459	0	0.000	0
20080621 23:40	18.5	18.5	18.5	76	14.2	0	0	112	0.00	1018.527	0	0.000	0
20080621 23:45	18.3	18.3	18.3	77	14.2	0	0	112	0.00	1018.527	0	0.000	0
20080621 23:50	18.1	18.1	18.1	77	14.0	0	0	112	0.00	1018.527	0	0.000	0
20080621 23:55	18.0	18.0	18.0	77	13.9	0	0	112	0.00	1018.493	0	0.000	0
20080621 24:00	18.0	18.0	18.0	78	14.1	0	0	112	0.00	1018.561	0	0.020	0



Please note the license to use and transfer of this data:
http://creativecommons.org/licenses/by-nc-sa/3.0/deed.en

Bitte beachten sie die Lizenz zur Verwertung und Weitergabe der Daten:
http://creativecommons.org/licenses/by-nc-sa/3.0/deed.de

zurück zur Übersicht der Archivdaten (Monats und Tagesdaten)

Cookies helfen bei der Bereitstellung von Inhalten. Durch die Nutzung dieser Seiten erklärst du dich damit einverstanden, dass Cookies auf deinem Rechner gespeichert werden. Weitere Information